エカテリンブルク の空港の天気 - METARとTAF

コルツォヴォ空港 ( USSS / SVX ) - ロシア エカテリンブルク
飛行場実況気象(Metar)
観測時間05/29 04:30 YEKT (05/28 23:30 UTC)
風向・風速南 5m/s
視程10km以上
天気現象
なし
気温12℃
湿度88%
気圧1006hPa
METARUSSS 282330Z 17005MPS CAVOK 12/10 Q1006 R08L/290035 NOSIG RMK QFE735/0980
過去の天気等 Google飛行場航空写真 Wunderground天気予報

過去48時間のMETAR

飛行場予報(TAF)
発表時間: 5/29 03:51 YEKT (5/28 22:51 UTC)
予報対象時間: 29日5時 YEKT ~ 30日5時 YEKT
風向・風速南 3m/s 瞬間風速 11m/s
視程6000m
天気現象弱いしゅう雨
全天の8割程度の積乱雲 雲底高度 490m
29日5時 YEKT ~ 29日9時 YEKT に一時的に
風向・風速南南西 8m/s 瞬間風速 15m/s
天気現象弱い雷雨
29日9時 YEKT から
風向・風速西 8m/s 瞬間風速 20m/s
視程10km以上
全天の4割程度の積乱雲 雲底高度 910m
29日21時 YEKT から
風向・風速南西 4m/s 瞬間風速 12m/s
視程6000m
天気現象弱いしゅう雨
全天の8割程度の積乱雲 雲底高度 610m
TAF USSS 282251Z 2900/2924 17003G11MPS 6000 -SHRA BKN016CB
TEMPO 2900/2904 21008G15MPS -TSRA
FM290400 27008G20MPS 9999 SCT030CB
FM291600 23004G12MPS 6000 -SHRA BKN020CB